sensor_id;sensor_type;location;lat;lon;timestamp;pressure;altitude;pressure_sealevel;temperature;humidity
25526;BME280;13424;48.424;11.258;2023-09-18T00:01:05;95266.47;;;21.66;84.43
25526;BME280;13424;48.424;11.258;2023-09-18T00:03:33;95258.94;;;21.80;83.86
25526;BME280;13424;48.424;11.258;2023-09-18T00:06:00;95247.63;;;21.78;83.60
25526;BME280;13424;48.424;11.258;2023-09-18T00:08:26;95249.72;;;21.81;83.48
25526;BME280;13424;48.424;11.258;2023-09-18T00:10:54;95242.19;;;21.61;84.09
25526;BME280;13424;48.424;11.258;2023-09-18T00:13:22;95238.81;;;21.55;84.80
25526;BME280;13424;48.424;11.258;2023-09-18T00:15:48;95241.06;;;21.79;83.46
25526;BME280;13424;48.424;11.258;2023-09-18T00:18:16;95243.81;;;21.96;82.54
25526;BME280;13424;48.424;11.258;2023-09-18T00:20:42;95238.06;;;21.89;82.49
25526;BME280;13424;48.424;11.258;2023-09-18T00:23:09;95232.91;;;21.36;84.54
25526;BME280;13424;48.424;11.258;2023-09-18T00:25:36;95231.44;;;21.30;85.44
25526;BME280;13424;48.424;11.258;2023-09-18T00:28:03;95216.31;;;21.55;84.64
25526;BME280;13424;48.424;11.258;2023-09-18T00:30:29;95219.34;;;21.36;84.99
25526;BME280;13424;48.424;11.258;2023-09-18T00:32:55;95215.16;;;21.30;85.18
25526;BME280;13424;48.424;11.258;2023-09-18T00:35:21;95211.34;;;21.31;85.65
25526;BME280;13424;48.424;11.258;2023-09-18T00:37:48;95199.72;;;21.39;85.18
25526;BME280;13424;48.424;11.258;2023-09-18T00:40:15;95206.25;;;21.29;85.66
25526;BME280;13424;48.424;11.258;2023-09-18T00:42:41;95201.09;;;21.19;85.65
25526;BME280;13424;48.424;11.258;2023-09-18T00:45:08;95205.78;;;21.36;85.15
25526;BME280;13424;48.424;11.258;2023-09-18T00:47:36;95207.22;;;21.51;84.21
25526;BME280;13424;48.424;11.258;2023-09-18T00:50:06;95208.31;;;21.32;84.55
25526;BME280;13424;48.424;11.258;2023-09-18T00:52:33;95195.66;;;21.19;85.35
25526;BME280;13424;48.424;11.258;2023-09-18T00:55:53;95196.84;;;21.35;84.38
25526;BME280;13424;48.424;11.258;2023-09-18T00:58:19;95192.28;;;21.05;85.92
25526;BME280;13424;48.424;11.258;2023-09-18T01:01:35;95201.94;;;21.45;84.21
25526;BME280;13424;48.424;11.258;2023-09-18T01:04:01;95189.50;;;21.27;84.94
25526;BME280;13424;48.424;11.258;2023-09-18T01:06:28;95195.88;;;21.31;84.69
25526;BME280;13424;48.424;11.258;2023-09-18T01:08:56;95185.19;;;21.35;84.07
25526;BME280;13424;48.424;11.258;2023-09-18T01:15:17;95189.81;;;21.34;84.06
25526;BME280;13424;48.424;11.258;2023-09-18T01:17:45;95188.00;;;21.21;84.52
25526;BME280;13424;48.424;11.258;2023-09-18T01:20:12;95186.63;;;20.84;86.23
25526;BME280;13424;48.424;11.258;2023-09-18T01:22:38;95187.66;;;20.97;85.54
25526;BME280;13424;48.424;11.258;2023-09-18T01:25:06;95182.31;;;20.74;86.59
25526;BME280;13424;48.424;11.258;2023-09-18T01:27:33;95179.47;;;20.79;85.99
25526;BME280;13424;48.424;11.258;2023-09-18T01:29:59;95191.94;;;20.89;85.82
25526;BME280;13424;48.424;11.258;2023-09-18T01:32:29;95188.72;;;20.78;85.74
25526;BME280;13424;48.424;11.258;2023-09-18T01:36:09;95183.84;;;21.15;84.27
25526;BME280;13424;48.424;11.258;2023-09-18T01:38:37;95176.69;;;21.10;84.35
25526;BME280;13424;48.424;11.258;2023-09-18T01:41:03;95169.31;;;21.02;84.05
25526;BME280;13424;48.424;11.258;2023-09-18T01:43:29;95167.09;;;21.13;83.68
25526;BME280;13424;48.424;11.258;2023-09-18T01:47:00;95149.69;;;20.88;84.50
25526;BME280;13424;48.424;11.258;2023-09-18T01:49:49;95159.41;;;20.98;83.86
25526;BME280;13424;48.424;11.258;2023-09-18T01:52:15;95154.13;;;20.92;83.98
25526;BME280;13424;48.424;11.258;2023-09-18T01:54:42;95168.66;;;20.97;83.44
25526;BME280;13424;48.424;11.258;2023-09-18T01:57:08;95164.31;;;20.78;84.12
25526;BME280;13424;48.424;11.258;2023-09-18T01:59:34;95160.28;;;20.67;84.30
25526;BME280;13424;48.424;11.258;2023-09-18T02:02:02;95163.66;;;20.73;83.99
25526;BME280;13424;48.424;11.258;2023-09-18T02:04:33;95162.41;;;20.79;84.13
25526;BME280;13424;48.424;11.258;2023-09-18T02:06:59;95155.94;;;20.57;84.78
25526;BME280;13424;48.424;11.258;2023-09-18T02:09:25;95154.44;;;20.43;85.89
25526;BME280;13424;48.424;11.258;2023-09-18T02:11:51;95150.88;;;20.65;84.39
25526;BME280;13424;48.424;11.258;2023-09-18T02:14:23;95152.41;;;20.48;84.69
25526;BME280;13424;48.424;11.258;2023-09-18T02:16:49;95152.84;;;20.11;86.95
25526;BME280;13424;48.424;11.258;2023-09-18T02:19:17;95150.03;;;20.47;85.48
25526;BME280;13424;48.424;11.258;2023-09-18T02:21:46;95143.84;;;20.55;85.60
25526;BME280;13424;48.424;11.258;2023-09-18T02:24:12;95137.34;;;20.73;84.56
25526;BME280;13424;48.424;11.258;2023-09-18T02:26:38;95118.50;;;20.59;85.69
25526;BME280;13424;48.424;11.258;2023-09-18T02:29:08;95120.06;;;20.52;85.70
25526;BME280;13424;48.424;11.258;2023-09-18T02:31:39;95124.19;;;20.98;83.74
25526;BME280;13424;48.424;11.258;2023-09-18T02:34:05;95132.97;;;20.95;84.00
25526;BME280;13424;48.424;11.258;2023-09-18T02:36:31;95128.66;;;20.94;84.00
25526;BME280;13424;48.424;11.258;2023-09-18T02:38:57;95131.19;;;20.99;83.33
25526;BME280;13424;48.424;11.258;2023-09-18T02:41:24;95122.91;;;20.86;83.65
25526;BME280;13424;48.424;11.258;2023-09-18T02:43:50;95122.63;;;20.48;85.37
25526;BME280;13424;48.424;11.258;2023-09-18T02:46:16;95126.88;;;20.80;83.89
25526;BME280;13424;48.424;11.258;2023-09-18T02:48:42;95123.59;;;20.61;84.12
25526;BME280;13424;48.424;11.258;2023-09-18T02:51:09;95129.59;;;20.89;82.95
25526;BME280;13424;48.424;11.258;2023-09-18T02:53:35;95124.28;;;20.35;84.72
25526;BME280;13424;48.424;11.258;2023-09-18T02:56:01;95123.59;;;20.61;83.29
25526;BME280;13424;48.424;11.258;2023-09-18T02:58:27;95129.22;;;20.73;82.87
25526;BME280;13424;48.424;11.258;2023-09-18T03:00:57;95123.09;;;20.50;84.05
25526;BME280;13424;48.424;11.258;2023-09-18T03:03:25;95121.31;;;20.85;82.55
25526;BME280;13424;48.424;11.258;2023-09-18T03:05:53;95121.69;;;20.61;83.42
25526;BME280;13424;48.424;11.258;2023-09-18T03:08:27;95117.63;;;20.42;84.13
25526;BME280;13424;48.424;11.258;2023-09-18T03:10:55;95112.84;;;19.99;86.63
25526;BME280;13424;48.424;11.258;2023-09-18T03:13:22;95116.91;;;20.58;83.60
25526;BME280;13424;48.424;11.258;2023-09-18T03:15:48;95112.47;;;20.54;83.09
25526;BME280;13424;48.424;11.258;2023-09-18T03:18:15;95104.00;;;20.55;82.52
25526;BME280;13424;48.424;11.258;2023-09-18T03:20:42;95101.13;;;20.52;82.52
25526;BME280;13424;48.424;11.258;2023-09-18T03:23:08;95099.03;;;20.49;82.81
25526;BME280;13424;48.424;11.258;2023-09-18T03:29:36;95091.84;;;20.13;84.53
25526;BME280;13424;48.424;11.258;2023-09-18T03:32:03;95097.19;;;20.27;83.78
25526;BME280;13424;48.424;11.258;2023-09-18T03:34:29;95077.41;;;20.18;83.68
25526;BME280;13424;48.424;11.258;2023-09-18T03:36:55;95088.03;;;20.14;83.35
25526;BME280;13424;48.424;11.258;2023-09-18T03:39:21;95091.69;;;20.10;82.71
25526;BME280;13424;48.424;11.258;2023-09-18T03:41:47;95086.84;;;19.98;82.90
25526;BME280;13424;48.424;11.258;2023-09-18T03:44:14;95083.28;;;20.20;82.55
25526;BME280;13424;48.424;11.258;2023-09-18T03:46:42;95070.28;;;19.91;84.04
25526;BME280;13424;48.424;11.258;2023-09-18T03:49:08;95058.50;;;19.64;84.91
25526;BME280;13424;48.424;11.258;2023-09-18T03:51:46;95058.50;;;19.64;84.80
25526;BME280;13424;48.424;11.258;2023-09-18T03:54:12;95051.13;;;19.78;84.77
25526;BME280;13424;48.424;11.258;2023-09-18T03:56:38;95045.75;;;19.87;83.33
25526;BME280;13424;48.424;11.258;2023-09-18T03:59:04;95050.78;;;20.11;82.83
25526;BME280;13424;48.424;11.258;2023-09-18T04:01:30;95039.81;;;19.76;83.78
25526;BME280;13424;48.424;11.258;2023-09-18T04:03:57;95042.78;;;19.44;85.35
25526;BME280;13424;48.424;11.258;2023-09-18T04:06:23;95039.41;;;19.38;86.22
25526;BME280;13424;48.424;11.258;2023-09-18T04:08:52;95035.94;;;19.46;87.21
25526;BME280;13424;48.424;11.258;2023-09-18T04:11:18;95042.41;;;19.37;87.51
25526;BME280;13424;48.424;11.258;2023-09-18T04:13:51;95038.41;;;19.57;86.34
25526;BME280;13424;48.424;11.258;2023-09-18T04:16:17;95030.59;;;19.33;87.76
25526;BME280;13424;48.424;11.258;2023-09-18T04:18:44;95033.69;;;19.40;87.10
25526;BME280;13424;48.424;11.258;2023-09-18T04:21:10;95022.97;;;19.35;87.38
25526;BME280;13424;48.424;11.258;2023-09-18T04:23:36;95028.34;;;19.79;85.04
25526;BME280;13424;48.424;11.258;2023-09-18T04:26:02;95025.66;;;19.79;83.28
25526;BME280;13424;48.424;11.258;2023-09-18T04:28:28;95026.41;;;19.71;84.72
25526;BME280;13424;48.424;11.258;2023-09-18T04:30:56;95018.94;;;19.46;85.27
25526;BME280;13424;48.424;11.258;2023-09-18T04:33:23;95023.50;;;19.14;87.70
25526;BME280;13424;48.424;11.258;2023-09-18T04:35:51;95024.03;;;19.25;88.16
25526;BME280;13424;48.424;11.258;2023-09-18T04:38:17;95016.81;;;19.43;87.18
25526;BME280;13424;48.424;11.258;2023-09-18T04:40:46;95019.97;;;18.91;89.13
25526;BME280;13424;48.424;11.258;2023-09-18T04:43:14;95024.09;;;19.11;88.56
25526;BME280;13424;48.424;11.258;2023-09-18T04:45:40;95016.72;;;19.25;87.29
25526;BME280;13424;48.424;11.258;2023-09-18T04:48:07;95031.22;;;19.52;85.91
25526;BME280;13424;48.424;11.258;2023-09-18T04:50:33;95024.19;;;19.51;85.81
25526;BME280;13424;48.424;11.258;2023-09-18T04:53:00;95014.63;;;19.22;87.55
25526;BME280;13424;48.424;11.258;2023-09-18T04:55:26;95028.41;;;19.12;88.15
25526;BME280;13424;48.424;11.258;2023-09-18T04:57:52;95037.00;;;19.37;86.74
25526;BME280;13424;48.424;11.258;2023-09-18T05:00:18;95044.41;;;19.53;85.49
25526;BME280;13424;48.424;11.258;2023-09-18T05:02:49;95048.19;;;19.44;85.97
25526;BME280;13424;48.424;11.258;2023-09-18T05:09:40;95049.91;;;19.62;85.08
25526;BME280;13424;48.424;11.258;2023-09-18T05:12:08;95056.16;;;19.04;88.54
25526;BME280;13424;48.424;11.258;2023-09-18T05:14:40;95053.91;;;19.20;88.08
25526;BME280;13424;48.424;11.258;2023-09-18T05:17:10;95057.53;;;19.38;87.60
25526;BME280;13424;48.424;11.258;2023-09-18T05:19:38;95050.63;;;19.32;88.25
25526;BME280;13424;48.424;11.258;2023-09-18T05:22:05;95059.06;;;19.30;89.00
25526;BME280;13424;48.424;11.258;2023-09-18T05:24:31;95067.47;;;19.73;87.10
25526;BME280;13424;48.424;11.258;2023-09-18T05:26:58;95051.03;;;19.92;86.29
25526;BME280;13424;48.424;11.258;2023-09-18T05:29:24;95069.59;;;20.16;85.57
25526;BME280;13424;48.424;11.258;2023-09-18T05:31:50;95049.81;;;20.07;85.72
25526;BME280;13424;48.424;11.258;2023-09-18T05:34:16;95040.84;;;19.98;86.20
25526;BME280;13424;48.424;11.258;2023-09-18T05:36:42;95041.84;;;20.02;86.06
25526;BME280;13424;48.424;11.258;2023-09-18T05:39:08;95040.31;;;19.87;87.20
25526;BME280;13424;48.424;11.258;2023-09-18T05:41:37;95040.97;;;20.32;84.84
25526;BME280;13424;48.424;11.258;2023-09-18T05:44:03;95049.06;;;20.89;82.94
25526;BME280;13424;48.424;11.258;2023-09-18T05:46:31;95053.22;;;21.13;82.31
25526;BME280;13424;48.424;11.258;2023-09-18T05:49:03;95054.19;;;21.00;82.29
25526;BME280;13424;48.424;11.258;2023-09-18T05:51:30;95066.63;;;21.01;82.73
25526;BME280;13424;48.424;11.258;2023-09-18T05:53:58;95080.03;;;21.32;81.79
25526;BME280;13424;48.424;11.258;2023-09-18T05:56:24;95074.75;;;21.61;81.15
25526;BME280;13424;48.424;11.258;2023-09-18T05:58:50;95080.34;;;21.65;80.76
25526;BME280;13424;48.424;11.258;2023-09-18T06:01:17;95077.75;;;21.77;79.97
25526;BME280;13424;48.424;11.258;2023-09-18T06:04:26;95067.41;;;21.70;80.04
25526;BME280;13424;48.424;11.258;2023-09-18T06:06:52;95062.97;;;21.57;80.30
25526;BME280;13424;48.424;11.258;2023-09-18T06:09:18;95065.50;;;21.54;79.07
25526;BME280;13424;48.424;11.258;2023-09-18T06:11:44;95070.09;;;21.79;79.15
25526;BME280;13424;48.424;11.258;2023-09-18T06:14:10;95074.38;;;21.97;78.85
25526;BME280;13424;48.424;11.258;2023-09-18T06:16:36;95084.50;;;21.45;81.24
25526;BME280;13424;48.424;11.258;2023-09-18T06:22:47;95089.06;;;20.84;83.21
25526;BME280;13424;48.424;11.258;2023-09-18T06:25:13;95092.31;;;21.55;80.32
25526;BME280;13424;48.424;11.258;2023-09-18T06:27:42;95081.50;;;19.75;89.11
25526;BME280;13424;48.424;11.258;2023-09-18T06:30:08;95082.94;;;20.52;84.56
25526;BME280;13424;48.424;11.258;2023-09-18T06:32:36;95087.16;;;20.84;85.10
25526;BME280;13424;48.424;11.258;2023-09-18T06:35:05;95122.78;;;21.26;83.88
25526;BME280;13424;48.424;11.258;2023-09-18T06:37:31;95108.00;;;20.58;85.33
25526;BME280;13424;48.424;11.258;2023-09-18T06:39:58;95107.81;;;21.37;81.77
25526;BME280;13424;48.424;11.258;2023-09-18T06:42:24;95115.44;;;21.18;82.08
25526;BME280;13424;48.424;11.258;2023-09-18T06:44:57;95115.25;;;21.06;82.40
25526;BME280;13424;48.424;11.258;2023-09-18T06:47:23;95119.28;;;21.60;81.26
25526;BME280;13424;48.424;11.258;2023-09-18T06:49:50;95125.97;;;21.63;81.19
25526;BME280;13424;48.424;11.258;2023-09-18T06:52:55;95119.19;;;22.03;80.22
25526;BME280;13424;48.424;11.258;2023-09-18T06:55:21;95111.22;;;22.16;78.85
25526;BME280;13424;48.424;11.258;2023-09-18T06:57:48;95124.34;;;22.05;78.94
25526;BME280;13424;48.424;11.258;2023-09-18T07:00:16;95132.88;;;22.33;78.83
25526;BME280;13424;48.424;11.258;2023-09-18T07:02:44;95128.66;;;22.82;77.62
25526;BME280;13424;48.424;11.258;2023-09-18T07:05:10;95136.28;;;22.98;77.47
25526;BME280;13424;48.424;11.258;2023-09-18T07:07:36;95133.69;;;23.31;75.93
25526;BME280;13424;48.424;11.258;2023-09-18T07:10:02;95138.84;;;23.24;75.61
25526;BME280;13424;48.424;11.258;2023-09-18T07:12:28;95151.72;;;23.15;76.44
25526;BME280;13424;48.424;11.258;2023-09-18T07:15:32;95160.63;;;23.24;76.55
25526;BME280;13424;48.424;11.258;2023-09-18T07:17:58;95163.91;;;22.70;78.58
25526;BME280;13424;48.424;11.258;2023-09-18T07:20:24;95156.53;;;23.38;76.45
25526;BME280;13424;48.424;11.258;2023-09-18T07:22:50;95152.53;;;23.57;75.07
25526;BME280;13424;48.424;11.258;2023-09-18T07:25:18;95144.63;;;23.43;76.14
25526;BME280;13424;48.424;11.258;2023-09-18T07:27:44;95134.59;;;23.56;76.56
25526;BME280;13424;48.424;11.258;2023-09-18T07:30:14;95139.44;;;23.50;76.19
25526;BME280;13424;48.424;11.258;2023-09-18T07:32:45;95141.94;;;23.64;76.98
25526;BME280;13424;48.424;11.258;2023-09-18T07:35:12;95126.75;;;24.08;76.11
25526;BME280;13424;48.424;11.258;2023-09-18T07:37:39;95128.16;;;22.60;79.12
25526;BME280;13424;48.424;11.258;2023-09-18T07:40:07;95119.44;;;22.75;79.15
25526;BME280;13424;48.424;11.258;2023-09-18T07:42:33;95126.50;;;23.89;74.81
25526;BME280;13424;48.424;11.258;2023-09-18T07:44:59;95128.44;;;23.26;76.92
25526;BME280;13424;48.424;11.258;2023-09-18T07:47:25;95131.97;;;24.46;74.01
25526;BME280;13424;48.424;11.258;2023-09-18T07:49:51;95141.66;;;25.17;72.76
25526;BME280;13424;48.424;11.258;2023-09-18T07:52:19;95137.22;;;24.06;74.05
25526;BME280;13424;48.424;11.258;2023-09-18T07:54:45;95137.81;;;25.06;72.54
25526;BME280;13424;48.424;11.258;2023-09-18T07:57:11;95145.59;;;25.44;71.45
25526;BME280;13424;48.424;11.258;2023-09-18T07:59:38;95151.69;;;25.13;71.20
25526;BME280;13424;48.424;11.258;2023-09-18T08:02:08;95151.53;;;24.85;73.30
25526;BME280;13424;48.424;11.258;2023-09-18T08:04:36;95157.59;;;25.15;71.93
25526;BME280;13424;48.424;11.258;2023-09-18T08:07:01;95169.84;;;24.97;73.87
25526;BME280;13424;48.424;11.258;2023-09-18T08:09:28;95174.28;;;25.38;72.12
25526;BME280;13424;48.424;11.258;2023-09-18T08:11:55;95175.97;;;24.69;73.43
25526;BME280;13424;48.424;11.258;2023-09-18T08:14:22;95178.50;;;25.23;72.78
25526;BME280;13424;48.424;11.258;2023-09-18T08:16:48;95177.13;;;25.17;70.36
25526;BME280;13424;48.424;11.258;2023-09-18T08:19:22;95182.25;;;25.19;71.04
25526;BME280;13424;48.424;11.258;2023-09-18T08:22:59;95186.09;;;24.93;72.72
25526;BME280;13424;48.424;11.258;2023-09-18T08:25:29;95181.59;;;25.74;71.74
25526;BME280;13424;48.424;11.258;2023-09-18T08:27:55;95192.88;;;26.57;69.64
25526;BME280;13424;48.424;11.258;2023-09-18T08:30:21;95186.63;;;26.28;68.43
25526;BME280;13424;48.424;11.258;2023-09-18T08:32:47;95189.25;;;25.97;68.63
25526;BME280;13424;48.424;11.258;2023-09-18T08:35:13;95198.00;;;26.58;68.37
25526;BME280;13424;48.424;11.258;2023-09-18T08:37:43;95194.31;;;25.82;68.77
25526;BME280;13424;48.424;11.258;2023-09-18T08:40:13;95198.50;;;26.20;69.21
25526;BME280;13424;48.424;11.258;2023-09-18T08:42:46;95200.69;;;25.86;69.09
25526;BME280;13424;48.424;11.258;2023-09-18T08:45:27;95196.06;;;26.90;66.05
25526;BME280;13424;48.424;11.258;2023-09-18T08:47:54;95198.09;;;26.93;65.81
25526;BME280;13424;48.424;11.258;2023-09-18T08:50:21;95198.72;;;27.03;64.02
25526;BME280;13424;48.424;11.258;2023-09-18T08:52:48;95205.50;;;26.77;66.74
25526;BME280;13424;48.424;11.258;2023-09-18T08:55:15;95213.31;;;27.07;64.14
25526;BME280;13424;48.424;11.258;2023-09-18T08:57:42;95204.03;;;26.95;65.49
25526;BME280;13424;48.424;11.258;2023-09-18T09:00:11;95208.72;;;27.11;64.45
25526;BME280;13424;48.424;11.258;2023-09-18T09:02:44;95213.41;;;26.51;66.79
25526;BME280;13424;48.424;11.258;2023-09-18T09:05:11;95209.81;;;26.34;65.14
25526;BME280;13424;48.424;11.258;2023-09-18T09:07:37;95204.38;;;26.34;64.44
25526;BME280;13424;48.424;11.258;2023-09-18T09:10:05;95215.19;;;26.59;65.35
25526;BME280;13424;48.424;11.258;2023-09-18T09:12:57;95215.00;;;27.46;66.15
25526;BME280;13424;48.424;11.258;2023-09-18T09:16:13;95222.34;;;27.93;64.19
25526;BME280;13424;48.424;11.258;2023-09-18T09:18:50;95223.28;;;28.01;64.44
25526;BME280;13424;48.424;11.258;2023-09-18T09:21:16;95222.47;;;28.00;64.29
25526;BME280;13424;48.424;11.258;2023-09-18T09:23:54;95212.41;;;28.04;63.12
25526;BME280;13424;48.424;11.258;2023-09-18T09:26:22;95214.13;;;28.13;61.69
25526;BME280;13424;48.424;11.258;2023-09-18T09:28:48;95217.88;;;28.04;64.70
25526;BME280;13424;48.424;11.258;2023-09-18T09:31:29;95228.56;;;28.29;61.27
25526;BME280;13424;48.424;11.258;2023-09-18T09:33:56;95216.19;;;27.65;60.83
25526;BME280;13424;48.424;11.258;2023-09-18T09:36:23;95217.28;;;27.76;61.83
25526;BME280;13424;48.424;11.258;2023-09-18T09:38:56;95220.34;;;28.71;59.24
25526;BME280;13424;48.424;11.258;2023-09-18T09:41:26;95228.91;;;28.27;60.57
25526;BME280;13424;48.424;11.258;2023-09-18T09:43:53;95222.06;;;28.18;60.91
25526;BME280;13424;48.424;11.258;2023-09-18T09:46:23;95215.44;;;28.38;61.95
25526;BME280;13424;48.424;11.258;2023-09-18T09:49:06;95216.38;;;28.46;60.65
25526;BME280;13424;48.424;11.258;2023-09-18T09:51:34;95221.25;;;28.17;61.44
25526;BME280;13424;48.424;11.258;2023-09-18T09:54:03;95229.63;;;28.44;61.30
25526;BME280;13424;48.424;11.258;2023-09-18T09:56:46;95221.47;;;27.89;61.52
25526;BME280;13424;48.424;11.258;2023-09-18T09:59:15;95225.97;;;27.97;59.92
25526;BME280;13424;48.424;11.258;2023-09-18T10:01:41;95228.78;;;28.20;61.26
25526;BME280;13424;48.424;11.258;2023-09-18T10:04:15;95230.09;;;27.72;59.24
25526;BME280;13424;48.424;11.258;2023-09-18T10:06:52;95233.94;;;27.87;59.54
25526;BME280;13424;48.424;11.258;2023-09-18T10:09:22;95227.66;;;27.51;60.27
25526;BME280;13424;48.424;11.258;2023-09-18T10:11:52;95231.47;;;27.15;60.83
25526;BME280;13424;48.424;11.258;2023-09-18T10:14:30;95221.84;;;26.89;60.67
25526;BME280;13424;48.424;11.258;2023-09-18T10:17:20;95227.94;;;26.98;60.47
25526;BME280;13424;48.424;11.258;2023-09-18T10:20:08;95239.06;;;27.21;59.89
25526;BME280;13424;48.424;11.258;2023-09-18T10:22:39;95232.56;;;27.26;59.50
25526;BME280;13424;48.424;11.258;2023-09-18T10:25:23;95240.59;;;28.05;59.23
25526;BME280;13424;48.424;11.258;2023-09-18T10:27:51;95242.09;;;28.02;58.54
25526;BME280;13424;48.424;11.258;2023-09-18T10:30:25;95240.13;;;28.38;58.74
25526;BME280;13424;48.424;11.258;2023-09-18T10:32:52;95236.31;;;28.27;59.68
25526;BME280;13424;48.424;11.258;2023-09-18T10:35:19;95248.88;;;28.08;58.94
25526;BME280;13424;48.424;11.258;2023-09-18T10:37:48;95241.19;;;27.79;58.68
25526;BME280;13424;48.424;11.258;2023-09-18T10:40:20;95248.03;;;26.90;59.81
25526;BME280;13424;48.424;11.258;2023-09-18T10:42:48;95247.22;;;27.18;60.40
25526;BME280;13424;48.424;11.258;2023-09-18T10:45:15;95257.50;;;27.24;58.64
25526;BME280;13424;48.424;11.258;2023-09-18T10:47:45;95257.63;;;27.28;59.32
25526;BME280;13424;48.424;11.258;2023-09-18T10:50:24;95272.50;;;27.78;59.15
25526;BME280;13424;48.424;11.258;2023-09-18T10:52:51;95268.75;;;27.35;58.32
25526;BME280;13424;48.424;11.258;2023-09-18T10:55:17;95274.63;;;27.69;58.60
25526;BME280;13424;48.424;11.258;2023-09-18T10:57:52;95274.91;;;27.32;59.19
25526;BME280;13424;48.424;11.258;2023-09-18T11:00:18;95265.34;;;26.94;58.82
25526;BME280;13424;48.424;11.258;2023-09-18T11:02:51;95279.28;;;26.89;59.80
25526;BME280;13424;48.424;11.258;2023-09-18T11:05:32;95285.63;;;26.93;58.76
25526;BME280;13424;48.424;11.258;2023-09-18T11:08:51;95279.72;;;26.91;59.48
25526;BME280;13424;48.424;11.258;2023-09-18T11:11:20;95284.31;;;26.71;59.92
25526;BME280;13424;48.424;11.258;2023-09-18T11:13:53;95280.63;;;26.95;59.87
25526;BME280;13424;48.424;11.258;2023-09-18T11:21:29;95286.66;;;27.33;59.48
25526;BME280;13424;48.424;11.258;2023-09-18T11:24:04;95289.31;;;27.13;59.47
25526;BME280;13424;48.424;11.258;2023-09-18T11:26:35;95294.00;;;27.44;58.75
25526;BME280;13424;48.424;11.258;2023-09-18T11:29:05;95287.75;;;26.84;60.15
25526;BME280;13424;48.424;11.258;2023-09-18T11:31:49;95281.31;;;26.49;60.85
25526;BME280;13424;48.424;11.258;2023-09-18T11:34:30;95289.97;;;26.79;60.20
25526;BME280;13424;48.424;11.258;2023-09-18T11:37:23;95305.09;;;26.20;61.52
25526;BME280;13424;48.424;11.258;2023-09-18T11:39:51;95304.50;;;26.27;61.37
25526;BME280;13424;48.424;11.258;2023-09-18T11:42:21;95318.34;;;25.57;63.43
25526;BME280;13424;48.424;11.258;2023-09-18T11:44:52;95322.91;;;25.53;63.78
25526;BME280;13424;48.424;11.258;2023-09-18T11:47:23;95331.81;;;24.71;65.18
25526;BME280;13424;48.424;11.258;2023-09-18T11:49:57;95334.41;;;24.89;65.06
25526;BME280;13424;48.424;11.258;2023-09-18T11:52:29;95340.13;;;24.42;66.21
25526;BME280;13424;48.424;11.258;2023-09-18T11:54:59;95350.88;;;24.59;65.80
25526;BME280;13424;48.424;11.258;2023-09-18T11:57:26;95357.91;;;24.18;67.30
25526;BME280;13424;48.424;11.258;2023-09-18T11:59:53;95350.28;;;24.54;67.43
25526;BME280;13424;48.424;11.258;2023-09-18T12:02:27;95358.44;;;24.33;69.75
25526;BME280;13424;48.424;11.258;2023-09-18T12:04:55;95350.97;;;24.00;71.07
25526;BME280;13424;48.424;11.258;2023-09-18T12:07:33;95366.28;;;24.13;71.46
25526;BME280;13424;48.424;11.258;2023-09-18T12:10:02;95384.88;;;23.82;74.28
25526;BME280;13424;48.424;11.258;2023-09-18T12:12:30;95399.09;;;23.02;75.14
25526;BME280;13424;48.424;11.258;2023-09-18T12:14:57;95386.16;;;22.30;76.81
25526;BME280;13424;48.424;11.258;2023-09-18T12:17:23;95387.72;;;22.74;76.30
25526;BME280;13424;48.424;11.258;2023-09-18T12:19:53;95401.50;;;22.69;76.88
25526;BME280;13424;48.424;11.258;2023-09-18T12:25:58;95416.38;;;22.37;79.84
25526;BME280;13424;48.424;11.258;2023-09-18T12:28:26;95406.97;;;21.86;81.13
25526;BME280;13424;48.424;11.258;2023-09-18T12:30:56;95410.13;;;21.71;80.85
25526;BME280;13424;48.424;11.258;2023-09-18T12:33:24;95404.34;;;21.64;81.51
25526;BME280;13424;48.424;11.258;2023-09-18T12:35:51;95412.31;;;21.52;82.31
25526;BME280;13424;48.424;11.258;2023-09-18T12:38:18;95416.25;;;21.45;82.72
25526;BME280;13424;48.424;11.258;2023-09-18T12:41:11;95420.59;;;21.24;84.00
25526;BME280;13424;48.424;11.258;2023-09-18T12:43:40;95427.38;;;21.35;85.11
25526;BME280;13424;48.424;11.258;2023-09-18T12:46:08;95421.59;;;21.06;85.50
25526;BME280;13424;48.424;11.258;2023-09-18T12:48:39;95416.34;;;20.78;87.49
25526;BME280;13424;48.424;11.258;2023-09-18T12:51:12;95423.47;;;20.97;87.51
25526;BME280;13424;48.424;11.258;2023-09-18T12:57:33;95417.88;;;21.24;85.81
25526;BME280;13424;48.424;11.258;2023-09-18T12:59:59;95419.63;;;21.20;86.15
25526;BME280;13424;48.424;11.258;2023-09-18T13:02:25;95419.97;;;21.50;85.10
25526;BME280;13424;48.424;11.258;2023-09-18T13:04:56;95433.28;;;21.37;85.11
25526;BME280;13424;48.424;11.258;2023-09-18T13:07:24;95433.25;;;21.29;85.32
25526;BME280;13424;48.424;11.258;2023-09-18T13:10:09;95437.91;;;21.37;85.64
25526;BME280;13424;48.424;11.258;2023-09-18T13:12:52;95442.44;;;21.19;86.39
25526;BME280;13424;48.424;11.258;2023-09-18T13:15:27;95445.94;;;21.42;85.42
25526;BME280;13424;48.424;11.258;2023-09-18T13:17:56;95451.22;;;21.47;84.85
25526;BME280;13424;48.424;11.258;2023-09-18T13:20:28;95448.47;;;21.38;85.15
25526;BME280;13424;48.424;11.258;2023-09-18T13:22:59;95458.34;;;21.12;86.53
25526;BME280;13424;48.424;11.258;2023-09-18T13:25:40;95459.75;;;21.32;87.05
25526;BME280;13424;48.424;11.258;2023-09-18T13:28:11;95453.59;;;21.49;85.34
25526;BME280;13424;48.424;11.258;2023-09-18T13:30:40;95448.69;;;21.51;85.41
25526;BME280;13424;48.424;11.258;2023-09-18T13:33:12;95440.16;;;21.35;86.24
25526;BME280;13424;48.424;11.258;2023-09-18T13:35:42;95441.47;;;21.46;84.94